This is the latest recevied weather packets stored in our database for station/object OE-11099. If no packets are shown the sender has not sent any weather packets the latest 10 day(s).
| Time | Temp. | Humidity | Pressure | Rain* | Wind** | Luminosity | Snow |
|---|---|---|---|---|---|---|---|
| 1787881279 | 29.44° C | 34% | 1008.9 hPa | 0 mm | - | 0 W/m² | - |
| 1787880906 | 28.89° C | 35% | 1009.2 hPa | 0 mm | - | 0 W/m² | - |
| 1787880306 | 28.89° C | 35% | 1009.3 hPa | 0 mm | - | 0 W/m² | - |
| 1787879478 | 28.89° C | 34% | 1009.2 hPa | 0 mm | - | 0 W/m² | - |
| 1787879105 | 28.33° C | 35% | 1009.4 hPa | 0 mm | - | 0 W/m² | - |
| 1787878506 | 28.33° C | 35% | 1009.6 hPa | 0 mm | - | 0 W/m² | - |
| 1787877678 | 28.33° C | 36% | 1009.5 hPa | 0 mm | - | 0 W/m² | - |
| 1787877306 | 28.89° C | 35% | 1009.5 hPa | 0 mm | - | 0 W/m² | - |
| 1787876706 | 28.33° C | 36% | 1009.8 hPa | 0 mm | - | 0 W/m² | - |
| 1787875878 | 28.89° C | 35% | 1010.1 hPa | 0 mm | - | 0 W/m² | - |
| 1787875505 | 29.44° C | 34% | 1009.6 hPa | 0 mm | - | 0 W/m² | - |
| 1787874906 | 30° C | 32% | 1009.4 hPa | 0 mm | - | 0 W/m² | - |
| 1787874078 | 30.56° C | 31% | 1009.2 hPa | 0 mm | - | 0 W/m² | - |
| 1787873706 | 30.56° C | 31% | 1009.4 hPa | 0 mm | - | 0 W/m² | - |
| 1787873105 | 30° C | 32% | 1009.4 hPa | 0 mm | - | 0 W/m² | - |
| 1787872506 | 30° C | 32% | 1009.9 hPa | 0 mm | - | 0 W/m² | - |
| 1787871905 | 30° C | 31% | 1009.8 hPa | 0 mm | - | 0 W/m² | - |
| 1787870479 | 28.89° C | 34% | 1010.1 hPa | 0 mm | - | 0 W/m² | - |
| 1787870106 | 28.89° C | 34% | 1010.1 hPa | 0 mm | - | 0 W/m² | - |
| 1787869506 | 28.89° C | 34% | 1010.2 hPa | 0 mm | - | 0 W/m² | - |
| 1787868679 | 30° C | 31% | 1010.1 hPa | 0 mm | - | 0 W/m² | - |
| 1787868305 | 30° C | 32% | 1010.1 hPa | 0 mm | - | 0 W/m² | - |
| 1787867706 | 30° C | 31% | 1009.9 hPa | 0 mm | - | 0 W/m² | - |
| 1787866879 | 30.56° C | 29% | 1009.8 hPa | 0 mm | - | 0 W/m² | - |
| 1787866505 | 30.56° C | 29% | 1009.8 hPa | 0 mm | - | 0 W/m² | - |
* Rain latest hour (hover to see other rain measurements)
** Current wind speed in m/s (hover to see current wind gust speed)